Time;durP1;ratioP1;P1;durP2;ratioP2;P2;SDS_P1;SDS_P2;PMS_P1;PMS_P2;Temp;Humidity;BMP_temperature;BMP_pressure;BME280_temperature;BME280_humidity;BME280_pressure;Samples;Min_cycle;Max_cycle;Signal;HPM_P1;HPM_P2
2021/08/28 00:00:04;;;;;;;;;;;;;;;21.61;57.29;101437.00;5103731;27;19928;-63
2021/08/28 00:02:32;;;;;;;;;;;;;;;21.61;57.53;101439.72;5098966;28;21197;-63
2021/08/28 00:05:00;;;;;;;;;;;;;;;21.61;57.36;101436.16;5101168;28;20436;-63
2021/08/28 00:07:29;;;;;;;;;;;;;;;21.60;57.76;101435.28;5104564;28;20034;-63
2021/08/28 00:09:56;;;;;;;;;;;;;;;21.60;57.38;101431.72;5095026;28;20001;-63
2021/08/28 00:12:24;;;;;;;;;;;;;;;21.58;57.17;101434.53;5094989;28;20156;-63
2021/08/28 00:14:53;;;;;;;;;;;;;;;21.59;57.57;101435.38;5100837;28;19930;-65
2021/08/28 00:17:22;;;;;;;;;;;;;;;21.58;57.01;101437.22;5098736;28;19947;-63
2021/08/28 00:19:49;;;;;;;;;;;;;;;21.59;56.94;101430.88;5101327;28;20398;-63
2021/08/28 00:22:17;;;;;;;;;;;;;;;21.59;57.35;101430.00;5097015;28;20408;-65
2021/08/28 00:24:45;;;;;;;;;;;;;;;21.60;57.01;101431.72;5096542;28;19932;-64
2021/08/28 00:27:13;;;;;;;;;;;;;;;21.60;56.91;101429.91;5103293;28;19932;-64
2021/08/28 00:29:41;;;;;;;;;;;;;;;21.61;57.15;101438.84;5103858;28;20283;-65
2021/08/28 00:32:12;;;;;;;;;;;;;;;21.60;57.14;101437.97;5102102;28;20259;-64
2021/08/28 00:34:40;;;;;;;;;;;;;;;21.60;57.21;101439.81;5095564;28;19963;-63
2021/08/28 00:37:08;;;;;;;;;;;;;;;21.59;57.37;101433.56;5097970;28;19923;-64
2021/08/28 00:39:36;;;;;;;;;;;;;;;21.61;56.91;101438.84;5097003;28;21042;-65
2021/08/28 00:42:04;;;;;;;;;;;;;;;21.60;57.07;101437.13;5101411;28;19981;-64
2021/08/28 00:44:32;;;;;;;;;;;;;;;21.60;57.29;101437.97;5100268;28;19931;-63
2021/08/28 00:47:00;;;;;;;;;;;;;;;21.60;56.87;101437.97;5099926;28;19931;-65
2021/08/28 00:49:29;;;;;;;;;;;;;;;21.59;56.88;101440.75;5132279;27;20792;-63
2021/08/28 00:51:58;;;;;;;;;;;;;;;21.59;56.93;101446.16;5097390;28;19973;-64
2021/08/28 00:54:26;;;;;;;;;;;;;;;21.59;56.94;101441.66;5096123;28;19993;-65
2021/08/28 00:56:54;;;;;;;;;;;;;;;21.58;56.91;101441.72;5097983;28;19966;-63
2021/08/28 00:59:22;;;;;;;;;;;;;;;21.59;56.93;101446.16;5101075;28;19924;-64
2021/08/28 01:01:51;;;;;;;;;;;;;;;21.60;56.98;101450.56;5101093;27;19966;-64
2021/08/28 01:04:20;;;;;;;;;;;;;;;21.61;57.08;101446.94;5097951;28;19924;-64
2021/08/28 01:06:57;;;;;;;;;;;;;;;21.62;56.99;101449.53;5090841;28;20607;-64
2021/08/28 01:09:54;;;;;;;;;;;;;;;21.62;56.85;101446.81;5101492;28;19928;-64
2021/08/28 01:12:36;;;;;;;;;;;;;;;21.64;56.97;101446.72;5102095;28;19986;-63
2021/08/28 01:15:12;;;;;;;;;;;;;;;21.64;57.03;101450.31;5100726;28;20022;-64
2021/08/28 01:17:44;;;;;;;;;;;;;;;21.64;56.97;101452.13;5129536;27;20020;-64
2021/08/28 01:20:17;;;;;;;;;;;;;;;21.63;57.01;101459.34;5089631;28;19939;-63
2021/08/28 01:23:06;;;;;;;;;;;;;;;21.64;56.98;101462.88;5099075;28;19989;-63
2021/08/28 01:26:02;;;;;;;;;;;;;;;21.62;56.76;101468.38;5132109;27;20696;-64
2021/08/28 01:28:39;;;;;;;;;;;;;;;21.61;56.66;101463.09;5095196;28;19946;-64
2021/08/28 01:31:11;;;;;;;;;;;;;;;21.61;56.75;101461.25;5099280;28;20646;-64
2021/08/28 01:33:40;;;;;;;;;;;;;;;21.61;56.85;101463.94;5095824;28;19939;-63
2021/08/28 01:36:10;;;;;;;;;;;;;;;21.62;56.84;101467.50;5094179;28;19954;-63
2021/08/28 01:38:57;;;;;;;;;;;;;;;21.62;56.73;101467.50;5097933;28;19949;-64
2021/08/28 01:41:26;;;;;;;;;;;;;;;21.62;56.83;101471.06;5102211;28;20181;-63
2021/08/28 01:43:58;;;;;;;;;;;;;;;21.63;56.82;101466.53;5115494;28;19934;-64
2021/08/28 01:46:30;;;;;;;;;;;;;;;21.63;56.98;101464.72;5095974;28;19927;-63
2021/08/28 01:48:58;;;;;;;;;;;;;;;21.63;56.83;101467.41;5089431;28;19931;-63
2021/08/28 01:51:29;;;;;;;;;;;;;;;21.64;56.94;101465.56;5101094;28;19931;-64
2021/08/28 01:54:01;;;;;;;;;;;;;;;21.63;56.77;101459.34;5098974;28;20017;-64
2021/08/28 01:56:31;;;;;;;;;;;;;;;21.64;56.94;101463.75;5100157;28;19928;-63
2021/08/28 01:59:00;;;;;;;;;;;;;;;21.64;56.66;101457.50;5096275;28;19968;-63
2021/08/28 02:01:54;;;;;;;;;;;;;;;21.63;56.73;101447.69;5094502;28;19924;-63
2021/08/28 02:04:23;;;;;;;;;;;;;;;21.64;56.75;101462.88;5093778;28;19935;-63
2021/08/28 02:06:56;;;;;;;;;;;;;;;21.62;56.77;101464.81;5105499;28;19936;-65
2021/08/28 02:09:27;;;;;;;;;;;;;;;21.61;56.74;101455.88;5098378;28;19924;-64
2021/08/28 02:12:00;;;;;;;;;;;;;;;21.62;56.64;101459.44;5106282;28;19928;-63
2021/08/28 02:14:34;;;;;;;;;;;;;;;21.63;56.45;101453.06;5137149;27;20066;-64
2021/08/28 02:17:04;;;;;;;;;;;;;;;21.63;56.68;101453.94;5095613;28;19955;-64
2021/08/28 02:19:34;;;;;;;;;;;;;;;21.63;56.64;101459.34;5098466;28;20179;-65
2021/08/28 02:22:39;;;;;;;;;;;;;;;21.64;56.71;101461.06;5100233;28;19995;-64
2021/08/28 02:25:28;;;;;;;;;;;;;;;21.66;56.70;101460.97;5104755;28;20333;-64
2021/08/28 02:28:03;;;;;;;;;;;;;;;21.65;56.77;101460.09;5138053;27;19931;-63
2021/08/28 02:30:31;;;;;;;;;;;;;;;21.65;57.00;101460.09;5092676;28;19954;-63
2021/08/28 02:33:11;;;;;;;;;;;;;;;21.65;56.79;101453.84;5103331;28;19932;-64
2021/08/28 02:35:45;;;;;;;;;;;;;;;21.64;56.68;101454.81;5100010;28;19932;-63
2021/08/28 02:38:17;;;;;;;;;;;;;;;21.64;56.53;101449.41;5104073;28;19924;-65
2021/08/28 02:40:49;;;;;;;;;;;;;;;21.61;56.42;101449.63;5096971;28;20410;-65
2021/08/28 02:43:18;;;;;;;;;;;;;;;21.61;56.62;101445.09;5134902;27;20331;-64
2021/08/28 02:45:49;;;;;;;;;;;;;;;21.61;56.69;101442.41;5098061;28;19931;-63
2021/08/28 02:48:25;;;;;;;;;;;;;;;21.61;56.55;101447.78;5100473;28;20015;-64
2021/08/28 02:50:54;;;;;;;;;;;;;;;21.62;56.54;101451.38;5099623;28;19931;-63
2021/08/28 02:53:24;;;;;;;;;;;;;;;21.62;56.38;101449.53;5101937;28;19945;-63
2021/08/28 02:55:53;;;;;;;;;;;;;;;21.63;56.75;101455.75;5103692;28;19989;-63
2021/08/28 02:58:22;;;;;;;;;;;;;;;21.63;56.50;101448.56;5093729;28;19946;-63
2021/08/28 03:00:52;;;;;;;;;;;;;;;21.64;56.58;101449.41;5100554;28;20505;-63
2021/08/28 03:03:20;;;;;;;;;;;;;;;21.65;56.58;101461.94;5098040;28;19927;-63
2021/08/28 03:05:52;;;;;;;;;;;;;;;21.64;56.66;101463.75;5101254;28;19938;-64
2021/08/28 03:08:22;;;;;;;;;;;;;;;21.64;56.56;101468.25;5102621;28;20566;-64
2021/08/28 03:10:52;;;;;;;;;;;;;;;21.64;56.55;101461.06;5101530;28;19983;-63
2021/08/28 03:13:22;;;;;;;;;;;;;;;21.64;56.73;101457.50;5097513;28;20333;-63
2021/08/28 03:15:51;;;;;;;;;;;;;;;21.64;56.74;101462.88;5101428;28;19935;-63
2021/08/28 03:18:20;;;;;;;;;;;;;;;21.64;56.51;101460.19;5103052;28;20623;-63
2021/08/28 03:20:53;;;;;;;;;;;;;;;21.63;56.35;101466.53;5102343;28;19932;-63
2021/08/28 03:23:22;;;;;;;;;;;;;;;21.61;56.55;101463.94;5101286;28;19995;-64
2021/08/28 03:25:55;;;;;;;;;;;;;;;21.62;56.51;101465.69;5092395;28;20367;-64
2021/08/28 03:28:25;;;;;;;;;;;;;;;21.61;56.38;101463.94;5099322;28;19927;-65
2021/08/28 03:30:53;;;;;;;;;;;;;;;21.62;56.62;101465.69;5104605;28;19931;-64
2021/08/28 03:33:21;;;;;;;;;;;;;;;21.62;56.53;101457.59;5106247;28;20502;-64
2021/08/28 03:35:58;;;;;;;;;;;;;;;21.63;56.51;101445.88;5097030;28;19935;-64
2021/08/28 03:38:27;;;;;;;;;;;;;;;21.64;56.62;101452.13;5100200;28;19932;-64
2021/08/28 03:41:01;;;;;;;;;;;;;;;21.64;56.52;101454.81;5095861;28;19942;-63
2021/08/28 03:43:29;;;;;;;;;;;;;;;21.64;56.63;101455.69;5102150;28;19969;-63
2021/08/28 03:45:57;;;;;;;;;;;;;;;21.64;56.45;101447.63;5093759;28;19931;-64
2021/08/28 03:48:26;;;;;;;;;;;;;;;21.65;56.55;101451.16;5099804;28;20556;-64
2021/08/28 03:50:54;;;;;;;;;;;;;;;21.64;56.52;101446.72;5100335;28;19939;-65
2021/08/28 03:53:24;;;;;;;;;;;;;;;21.64;56.65;101458.38;5132731;27;20164;-65
2021/08/28 03:55:52;;;;;;;;;;;;;;;21.64;56.51;101460.19;5091113;28;19924;-64
2021/08/28 03:58:21;;;;;;;;;;;;;;;21.62;56.48;101454.91;5105814;28;19927;-63
2021/08/28 04:00:49;;;;;;;;;;;;;;;21.63;56.55;101458.44;5133326;27;19971;-65
2021/08/28 04:03:17;;;;;;;;;;;;;;;21.62;56.50;101457.59;5097260;28;19954;-64
2021/08/28 04:05:45;;;;;;;;;;;;;;;21.62;56.37;101459.44;5100733;28;19928;-64
2021/08/28 04:08:16;;;;;;;;;;;;;;;21.63;56.56;101471.91;5093230;28;20488;-63
2021/08/28 04:10:49;;;;;;;;;;;;;;;21.62;56.67;101468.38;5097076;28;19939;-63
2021/08/28 04:13:22;;;;;;;;;;;;;;;21.63;56.40;101469.22;5099582;28;19923;-64
2021/08/28 04:15:51;;;;;;;;;;;;;;;21.62;56.47;101464.81;5115286;27;19931;-63
2021/08/28 04:18:23;;;;;;;;;;;;;;;21.62;56.56;101464.81;5098645;28;19977;-63
2021/08/28 04:20:57;;;;;;;;;;;;;;;21.62;56.45;101470.22;5096939;28;19992;-63
2021/08/28 04:23:38;;;;;;;;;;;;;;;21.62;56.57;101460.28;5097481;28;19947;-63
2021/08/28 04:26:19;;;;;;;;;;;;;;;21.63;56.47;101469.22;5102242;28;19945;-63
2021/08/28 04:28:47;;;;;;;;;;;;;;;21.63;56.39;101470.09;5099733;28;20000;-65
2021/08/28 04:31:18;;;;;;;;;;;;;;;21.62;56.39;101462.13;5102139;28;20040;-63
2021/08/28 04:33:46;;;;;;;;;;;;;;;21.62;56.48;101462.13;5099791;28;19962;-63
2021/08/28 04:36:15;;;;;;;;;;;;;;;21.61;56.44;101461.25;5098552;28;20356;-64
2021/08/28 04:38:44;;;;;;;;;;;;;;;21.61;56.34;101455.88;5091205;28;19981;-65
2021/08/28 04:41:13;;;;;;;;;;;;;;;21.62;56.26;101457.59;5101628;28;20021;-64
2021/08/28 04:43:42;;;;;;;;;;;;;;;21.62;56.42;101465.69;5101971;28;19927;-63
2021/08/28 04:46:21;;;;;;;;;;;;;;;21.62;56.32;101468.38;5099254;28;19950;-65
2021/08/28 04:48:57;;;;;;;;;;;;;;;21.62;56.31;101468.38;5091167;28;19939;-63
2021/08/28 04:51:33;;;;;;;;;;;;;;;21.62;56.25;101460.28;5096625;28;20107;-64
2021/08/28 04:54:02;;;;;;;;;;;;;;;21.63;56.30;101470.09;5101293;28;19931;-63
2021/08/28 04:56:30;;;;;;;;;;;;;;;21.64;56.13;101465.56;5103030;28;19945;-64
2021/08/28 04:59:01;;;;;;;;;;;;;;;21.65;56.36;101468.16;5097672;28;19967;-63
2021/08/28 05:01:48;;;;;;;;;;;;;;;21.70;56.89;101465.19;5097261;28;20589;-64
2021/08/28 05:04:31;;;;;;;;;;;;;;;21.71;56.74;101462.41;5094158;28;19924;-63
2021/08/28 05:06:59;;;;;;;;;;;;;;;21.73;56.97;101470.38;5099726;28;20205;-64
2021/08/28 05:09:44;;;;;;;;;;;;;;;21.76;57.02;101463.94;5092873;28;19931;-64
2021/08/28 05:12:12;;;;;;;;;;;;;;;21.76;57.11;101469.31;5095440;28;20406;-63
2021/08/28 05:14:46;;;;;;;;;;;;;;;21.78;56.84;101464.72;5095925;28;19940;-62
2021/08/28 05:17:14;;;;;;;;;;;;;;;21.79;57.95;101469.13;5093668;28;19950;-63
2021/08/28 05:19:47;;;;;;;;;;;;;;;21.79;57.96;101471.84;5088340;28;20399;-65
2021/08/28 05:22:38;;;;;;;;;;;;;;;21.80;58.12;101479.81;5067418;28;19928;-62
2021/08/28 05:25:26;;;;;;;;;;;;;;;21.80;57.72;101474.44;5096863;28;20294;-65
2021/08/28 05:27:54;;;;;;;;;;;;;;;21.81;57.58;101481.50;5097816;28;19927;-63
2021/08/28 05:30:24;;;;;;;;;;;;;;;21.85;57.26;101472.31;5094272;28;19934;-66
2021/08/28 05:32:52;;;;;;;;;;;;;;;21.84;57.08;101473.25;5089588;28;19962;-65
2021/08/28 05:35:20;;;;;;;;;;;;;;;21.83;56.82;101474.22;5093242;28;20379;-66
2021/08/28 05:38:07;;;;;;;;;;;;;;;21.86;57.84;101463.25;5093612;28;20264;-62
2021/08/28 05:40:37;;;;;;;;;;;;;;;21.91;57.75;101471.03;5088259;27;19927;-65
2021/08/28 05:43:05;;;;;;;;;;;;;;;21.94;57.52;101467.28;5099472;27;19972;-66
2021/08/28 05:45:57;;;;;;;;;;;;;;;21.97;57.40;101469.78;5097782;28;19981;-64
2021/08/28 05:48:26;;;;;;;;;;;;;;;22.02;58.62;101463.16;5123924;27;19928;-65
2021/08/28 05:50:54;;;;;;;;;;;;;;;22.02;58.55;101462.25;5095512;28;20254;-65
2021/08/28 05:53:27;;;;;;;;;;;;;;;22.08;58.43;101461.03;5097869;28;19950;-66
2021/08/28 05:55:55;;;;;;;;;;;;;;;22.09;58.84;101460.03;5089869;28;19969;-67
2021/08/28 05:58:23;;;;;;;;;;;;;;;22.08;60.03;101463.72;5100935;28;19928;-64
2021/08/28 06:00:51;;;;;;;;;;;;;;;22.12;59.91;101462.56;5083880;28;19924;-68
2021/08/28 06:03:21;;;;;;;;;;;;;;;22.20;58.27;101452.97;5100208;28;19927;-65
2021/08/28 06:05:54;;;;;;;;;;;;;;;22.21;57.68;101459.25;5097400;28;20078;-66
2021/08/28 06:08:41;;;;;;;;;;;;;;;22.35;57.10;101456.53;5098320;28;19980;-67
2021/08/28 06:11:28;;;;;;;;;;;;;;;22.44;57.50;101446.97;5092039;28;20033;-66
2021/08/28 06:14:15;;;;;;;;;;;;;;;22.43;58.74;101455.16;5092948;28;19928;-66
2021/08/28 06:16:50;;;;;;;;;;;;;;;22.46;58.06;101455.81;5123631;27;19991;-68
2021/08/28 06:19:24;;;;;;;;;;;;;;;22.44;57.31;101457.75;5095746;28;19931;-65
2021/08/28 06:21:53;;;;;;;;;;;;;;;22.37;59.29;101453.75;5109555;27;19966;-65
2021/08/28 06:24:22;;;;;;;;;;;;;;;22.35;59.07;101459.25;5095122;28;19938;-63
2021/08/28 06:27:04;;;;;;;;;;;;;;;22.26;57.57;101456.25;5113175;27;19931;-65
2021/08/28 06:29:32;;;;;;;;;;;;;;;22.26;57.70;101459.81;5091969;28;19936;-63
2021/08/28 06:32:01;;;;;;;;;;;;;;;20.63;61.26;101462.63;5093379;27;20000;-69
2021/08/28 06:34:31;;;;;;;;;;;;;;;18.94;62.57;101463.72;5094106;27;20031;-65
2021/08/28 06:36:59;;;;;;;;;;;;;;;18.77;61.03;101474.38;5097196;28;19951;-67
2021/08/28 06:39:47;;;;;;;;;;;;;;;18.84;59.65;101460.59;5102013;27;19936;-69
2021/08/28 06:42:50;;;;;;;;;;;;;;;18.90;56.59;101465.69;5040714;28;19940;-67
2021/08/28 06:45:37;;;;;;;;;;;;;;;18.95;55.46;101453.84;5087359;28;19934;-70
2021/08/28 06:48:27;;;;;;;;;;;;;;;18.51;55.38;101457.81;5097103;28;19930;-69
2021/08/28 06:51:15;;;;;;;;;;;;;;;18.41;55.62;101460.06;5094640;28;19939;-68
2021/08/28 06:54:01;;;;;;;;;;;;;;;18.53;55.59;101461.28;5097388;28;19939;-69
2021/08/28 06:56:58;;;;;;;;;;;;;;;18.68;53.36;101460.50;5042107;28;20133;-69
2021/08/28 06:59:46;;;;;;;;;;;;;;;18.82;51.97;101457.16;5103084;28;19932;-67
2021/08/28 07:02:43;;;;;;;;;;;;;;;18.52;51.40;101457.72;5099450;28;19932;-69
2021/08/28 07:05:12;;;;;;;;;;;;;;;18.73;49.72;101458.47;5099697;28;20146;-70
2021/08/28 07:07:52;;;;;;;;;;;;;;;19.30;50.11;101462.75;5098115;28;20462;-70
2021/08/28 07:10:20;;;;;;;;;;;;;;;19.52;48.62;101453.56;5099410;28;19967;-68
2021/08/28 07:12:52;;;;;;;;;;;;;;;19.50;47.26;101455.44;5097227;28;19934;-70
2021/08/28 07:15:20;;;;;;;;;;;;;;;19.53;46.91;101452.63;5101680;28;19970;-70
2021/08/28 07:17:54;;;;;;;;;;;;;;;19.51;46.51;101449.13;5094490;28;19954;-69
2021/08/28 07:20:22;;;;;;;;;;;;;;;19.48;48.99;101452.84;5097957;28;19932;-68
2021/08/28 07:22:53;;;;;;;;;;;;;;;19.45;46.64;101450.34;5130996;27;19963;-69
2021/08/28 07:25:41;;;;;;;;;;;;;;;19.40;46.54;101453.25;5078133;28;20055;-69
2021/08/28 07:28:10;;;;;;;;;;;;;;;19.41;46.28;101459.50;5098854;28;19928;-69
2021/08/28 07:30:53;;;;;;;;;;;;;;;19.28;46.12;101458.41;5103759;28;19967;-69
2021/08/28 07:33:22;;;;;;;;;;;;;;;19.20;45.98;101456.13;5093736;28;21169;-66
2021/08/28 07:35:50;;;;;;;;;;;;;;;19.17;46.36;101454.47;5098635;28;19932;-69
2021/08/28 07:38:19;;;;;;;;;;;;;;;19.12;45.93;101461.91;5102099;27;19924;-68
2021/08/28 07:40:48;;;;;;;;;;;;;;;19.13;46.03;101452.03;5092217;27;19928;-69
2021/08/28 07:43:16;;;;;;;;;;;;;;;19.08;47.96;101452.28;5101090;28;19996;-68
2021/08/28 07:45:49;;;;;;;;;;;;;;;19.10;49.47;101454.91;5092709;28;20632;-69
2021/08/28 07:48:21;;;;;;;;;;;;;;;19.15;49.08;101448.34;5093198;28;19957;-68
2021/08/28 07:50:49;;;;;;;;;;;;;;;19.14;46.68;101453.78;5098343;28;19939;-69
2021/08/28 07:53:21;;;;;;;;;;;;;;;19.03;46.29;101455.22;5093764;28;20131;-69
2021/08/28 07:55:55;;;;;;;;;;;;;;;18.99;46.12;101442.91;5100707;28;20031;-70
2021/08/28 07:58:24;;;;;;;;;;;;;;;18.89;45.76;101442.50;5097338;28;20550;-69
2021/08/28 08:00:52;;;;;;;;;;;;;;;18.89;45.83;101449.69;5101996;28;19974;-70
2021/08/28 08:03:20;;;;;;;;;;;;;;;18.89;45.78;101444.31;5101544;28;19932;-68
2021/08/28 08:06:06;;;;;;;;;;;;;;;18.81;45.60;101444.69;5098724;28;19942;-69
2021/08/28 08:08:54;;;;;;;;;;;;;;;18.77;45.37;101440.44;5091846;28;19934;-70
2021/08/28 08:11:52;;;;;;;;;;;;;;;18.71;45.26;101432.69;5096729;28;20428;-70
2021/08/28 08:14:55;;;;;;;;;;;;;;;18.95;47.35;101445.81;5099975;28;19995;-67
2021/08/28 08:17:41;;;;;;;;;;;;;;;18.67;45.72;101448.06;5092591;28;19939;-69
2021/08/28 08:20:34;;;;;;;;;;;;;;;18.95;48.46;101441.34;5088325;28;19928;-72
2021/08/28 08:23:28;;;;;;;;;;;;;;;19.00;47.97;101447.34;5088561;28;19931;-67
2021/08/28 08:26:14;;;;;;;;;;;;;;;18.72;46.66;101439.78;5093528;28;19989;-69
2021/08/28 08:29:11;;;;;;;;;;;;;;;18.71;46.90;101446.97;5042800;28;19928;-64
2021/08/28 08:31:53;;;;;;;;;;;;;;;18.62;46.78;101446.56;5095069;28;19938;-65
2021/08/28 08:34:35;;;;;;;;;;;;;;;18.67;46.57;101441.84;5096546;28;19995;-64
2021/08/28 08:37:08;;;;;;;;;;;;;;;18.63;46.56;101440.25;5098565;28;20401;-65
2021/08/28 08:39:36;;;;;;;;;;;;;;;18.67;46.05;101452.56;5099617;28;20060;-65
2021/08/28 08:42:07;;;;;;;;;;;;;;;19.21;49.88;101456.06;5102149;28;20362;-66
2021/08/28 08:44:35;;;;;;;;;;;;;;;19.80;49.59;101455.59;5099041;28;20503;-66
2021/08/28 08:47:04;;;;;;;;;;;;;;;20.10;51.86;101467.44;5092350;28;19932;-67
2021/08/28 08:49:32;;;;;;;;;;;;;;;20.23;51.80;101457.72;5096191;28;20466;-66
2021/08/28 08:52:01;;;;;;;;;;;;;;;19.56;45.90;101460.50;5094885;28;19970;-66
2021/08/28 08:54:39;;;;;;;;;;;;;;;19.12;45.91;101463.72;5119548;27;19934;-66
2021/08/28 08:57:09;;;;;;;;;;;;;;;18.91;46.59;101461.19;5098730;28;19959;-66
2021/08/28 08:59:37;;;;;;;;;;;;;;;18.79;46.70;101453.75;5116507;27;19923;-66
2021/08/28 09:02:06;;;;;;;;;;;;;;;18.70;46.36;101455.06;5090903;28;20193;-66
2021/08/28 09:04:53;;;;;;;;;;;;;;;18.62;45.86;101454.59;5096016;28;19931;-66
2021/08/28 09:07:22;;;;;;;;;;;;;;;18.55;45.80;101446.84;5099819;28;19974;-66
2021/08/28 09:09:50;;;;;;;;;;;;;;;18.53;45.50;101453.22;5101323;28;19928;-66
2021/08/28 09:12:19;;;;;;;;;;;;;;;18.53;45.10;101453.22;5098892;28;19978;-66
2021/08/28 09:14:56;;;;;;;;;;;;;;;18.47;45.06;101458.91;5100118;28;19974;-66
2021/08/28 09:17:24;;;;;;;;;;;;;;;18.47;45.58;101451.75;5091008;28;20258;-66
2021/08/28 09:19:52;;;;;;;;;;;;;;;19.37;47.35;101458.81;5101134;28;19923;-65
2021/08/28 09:22:22;;;;;;;;;;;;;;;19.82;48.22;101447.50;5096087;28;19931;-65
2021/08/28 09:24:54;;;;;;;;;;;;;;;20.04;49.24;101453.41;5099411;28;21116;-65
2021/08/28 09:27:34;;;;;;;;;;;;;;;20.16;49.94;101457.22;5102842;28;19923;-65
2021/08/28 09:30:02;;;;;;;;;;;;;;;19.58;45.46;101454.09;5093750;28;20170;-65
2021/08/28 09:32:35;;;;;;;;;;;;;;;19.02;45.29;101449.94;5091769;28;19960;-65
2021/08/28 09:35:07;;;;;;;;;;;;;;;18.86;45.69;101449.81;5103487;28;19928;-66
2021/08/28 09:37:35;;;;;;;;;;;;;;;18.72;46.13;101442.47;5100445;28;19983;-65
2021/08/28 09:40:05;;;;;;;;;;;;;;;19.50;49.36;101453.66;5101063;28;19932;-65
2021/08/28 09:42:34;;;;;;;;;;;;;;;19.89;50.48;101446.19;5099720;28;19963;-65
2021/08/28 09:45:08;;;;;;;;;;;;;;;20.12;50.87;101450.28;5092722;28;19932;-65
2021/08/28 09:47:37;;;;;;;;;;;;;;;20.23;51.11;101455.91;5095445;28;20612;-64
2021/08/28 09:50:05;;;;;;;;;;;;;;;19.60;46.28;101448.63;5102185;28;20357;-66
2021/08/28 09:52:33;;;;;;;;;;;;;;;19.06;45.54;101444.31;5102304;28;19928;-65
2021/08/28 09:55:01;;;;;;;;;;;;;;;18.84;45.99;101435.63;5096325;28;19931;-65
2021/08/28 09:57:31;;;;;;;;;;;;;;;18.95;46.82;101441.34;5099736;28;20115;-66
2021/08/28 10:00:01;;;;;;;;;;;;;;;19.66;48.36;101448.31;5094100;28;20351;-66
2021/08/28 10:02:38;;;;;;;;;;;;;;;20.01;50.89;101441.97;5098507;28;20105;-66
2021/08/28 10:05:10;;;;;;;;;;;;;;;20.16;51.61;101446.47;5096282;28;20047;-66
2021/08/28 10:07:38;;;;;;;;;;;;;;;20.26;50.71;101441.44;5100469;28;19985;-66
2021/08/28 10:10:07;;;;;;;;;;;;;;;19.55;47.23;101442.66;5102522;28;19935;-65
2021/08/28 10:12:36;;;;;;;;;;;;;;;19.26;45.92;101436.19;5096274;28;19955;-65
2021/08/28 10:15:08;;;;;;;;;;;;;;;18.98;46.08;101432.28;5091743;28;20287;-65
2021/08/28 10:17:37;;;;;;;;;;;;;;;18.68;46.42;101439.06;5099437;28;19992;-65
2021/08/28 10:20:05;;;;;;;;;;;;;;;19.30;47.78;101437.75;5101862;28;19932;-65
2021/08/28 10:22:34;;;;;;;;;;;;;;;19.80;49.07;101434.13;5099801;28;19940;-65
2021/08/28 10:25:04;;;;;;;;;;;;;;;20.06;47.49;101431.81;5092690;28;19931;-64
2021/08/28 10:27:32;;;;;;;;;;;;;;;20.18;50.45;101428.44;5089628;28;19987;-67
2021/08/28 10:30:00;;;;;;;;;;;;;;;19.93;48.10;101428.13;5094347;28;19932;-67
2021/08/28 10:32:30;;;;;;;;;;;;;;;19.22;46.02;101430.97;5095603;27;19924;-65
2021/08/28 10:34:58;;;;;;;;;;;;;;;18.97;46.89;101433.22;5096616;28;20005;-65
2021/08/28 10:37:26;;;;;;;;;;;;;;;18.96;49.27;101431.47;5100495;28;19927;-66
2021/08/28 10:39:54;;;;;;;;;;;;;;;18.97;49.11;101435.91;5090725;28;20021;-64
2021/08/28 10:42:23;;;;;;;;;;;;;;;19.63;49.73;101426.13;5098841;27;20370;-65
2021/08/28 10:44:51;;;;;;;;;;;;;;;19.96;50.64;101433.28;5100979;28;19924;-65
2021/08/28 10:47:22;;;;;;;;;;;;;;;20.13;50.79;101443.97;5097046;28;19928;-65
2021/08/28 10:50:01;;;;;;;;;;;;;;;20.21;51.57;101439.03;5101161;28;20894;-65
2021/08/28 10:52:29;;;;;;;;;;;;;;;20.26;51.18;101430.69;5107999;28;19959;-65
2021/08/28 10:54:58;;;;;;;;;;;;;;;19.47;47.25;101435.00;5100250;28;19969;-65
2021/08/28 10:57:28;;;;;;;;;;;;;;;18.94;47.36;101436.03;5094762;28;19943;-65
2021/08/28 11:00:00;;;;;;;;;;;;;;;18.79;47.31;101435.84;5103594;28;19935;-65
2021/08/28 11:02:43;;;;;;;;;;;;;;;19.11;49.40;101443.19;5105619;28;20013;-65
2021/08/28 11:05:16;;;;;;;;;;;;;;;19.70;50.21;101433.78;5104760;28;20532;-65
2021/08/28 11:07:44;;;;;;;;;;;;;;;19.99;50.30;101442.06;5097627;28;19924;-66
2021/08/28 11:10:17;;;;;;;;;;;;;;;20.13;50.88;101440.41;5098958;28;19997;-65
2021/08/28 11:12:49;;;;;;;;;;;;;;;19.72;48.92;101444.41;5102275;28;19938;-65
2021/08/28 11:15:51;;;;;;;;;;;;;;;19.12;46.43;101434.22;5104677;28;19931;-65
2021/08/28 11:18:38;;;;;;;;;;;;;;;18.86;47.17;101436.41;5095471;28;20422;-64
2021/08/28 11:21:08;;;;;;;;;;;;;;;19.33;49.16;101437.56;5104385;28;19965;-65
2021/08/28 11:23:39;;;;;;;;;;;;;;;19.81;49.81;101432.31;5094935;28;20403;-66
2021/08/28 11:26:07;;;;;;;;;;;;;;;20.06;50.44;101429.16;5100971;28;19928;-65
2021/08/28 11:28:39;;;;;;;;;;;;;;;20.18;50.39;101427.59;5097451;28;20483;-66
2021/08/28 11:31:07;;;;;;;;;;;;;;;19.77;48.08;101433.44;5104411;28;20372;-66
2021/08/28 11:33:35;;;;;;;;;;;;;;;19.39;48.87;101435.41;5101922;28;19928;-66
2021/08/28 11:36:04;;;;;;;;;;;;;;;19.05;46.76;101439.03;5098300;28;20947;-64
2021/08/28 11:38:41;;;;;;;;;;;;;;;19.14;48.77;101438.56;5097765;28;20166;-65
2021/08/28 11:41:10;;;;;;;;;;;;;;;19.71;50.23;101435.50;5095151;28;20310;-65
2021/08/28 11:43:39;;;;;;;;;;;;;;;19.99;52.07;101439.38;5098518;28;19988;-65
2021/08/28 11:46:09;;;;;;;;;;;;;;;20.14;50.75;101436.78;5100875;28;19967;-65
2021/08/28 11:48:38;;;;;;;;;;;;;;;19.92;49.25;101435.28;5097269;28;20208;-64
2021/08/28 11:51:07;;;;;;;;;;;;;;;19.37;46.53;101425.72;5092329;28;19939;-65
2021/08/28 11:53:38;;;;;;;;;;;;;;;18.87;47.06;101430.97;5099501;28;19927;-64
2021/08/28 11:56:08;;;;;;;;;;;;;;;19.11;48.59;101429.78;5101378;28;19932;-64
2021/08/28 11:59:03;;;;;;;;;;;;;;;19.67;50.15;101425.91;5104067;28;19949;-65
2021/08/28 12:01:33;;;;;;;;;;;;;;;19.99;50.26;101425.94;5063695;28;19931;-69
2021/08/28 12:04:03;;;;;;;;;;;;;;;20.13;51.24;101421.59;5091331;28;19928;-64
2021/08/28 12:06:32;;;;;;;;;;;;;;;20.22;51.83;101426.44;5100377;28;19924;-67
2021/08/28 12:09:00;;;;;;;;;;;;;;;20.29;51.70;101425.16;5096841;28;19976;-63
2021/08/28 12:11:30;;;;;;;;;;;;;;;20.33;51.91;101425.81;5102799;27;19923;-65
2021/08/28 12:14:02;;;;;;;;;;;;;;;20.36;52.36;101425.66;5103596;28;19938;-68
2021/08/28 12:16:31;;;;;;;;;;;;;;;20.41;51.12;101423.56;5097322;27;20754;-66
2021/08/28 12:19:00;;;;;;;;;;;;;;;20.44;52.44;101425.22;5098062;28;19928;-67
2021/08/28 12:21:29;;;;;;;;;;;;;;;20.45;52.86;101414.38;5096797;28;19953;-66
2021/08/28 12:23:57;;;;;;;;;;;;;;;20.48;52.87;101421.41;5103622;28;20017;-67
2021/08/28 12:26:25;;;;;;;;;;;;;;;20.49;54.23;101420.44;5103775;28;19928;-64
2021/08/28 12:29:04;;;;;;;;;;;;;;;20.49;53.79;101424.00;5102821;28;19938;-67
2021/08/28 12:31:32;;;;;;;;;;;;;;;20.55;54.01;101422.75;5094793;28;20278;-66
2021/08/28 12:34:02;;;;;;;;;;;;;;;20.60;54.95;101420.66;5093286;28;20298;-64
2021/08/28 12:36:31;;;;;;;;;;;;;;;20.63;55.47;101419.63;5102228;28;19951;-66
2021/08/28 12:39:04;;;;;;;;;;;;;;;20.64;57.20;101424.03;5101429;28;19928;-67
2021/08/28 12:41:32;;;;;;;;;;;;;;;20.65;57.64;101423.09;5097360;27;19935;-66
2021/08/28 12:44:01;;;;;;;;;;;;;;;20.67;57.46;101424.72;5100088;28;20889;-67
2021/08/28 12:46:29;;;;;;;;;;;;;;;20.68;55.21;101429.16;5092544;28;19963;-67
2021/08/28 12:49:07;;;;;;;;;;;;;;;20.69;53.80;101427.31;5091559;28;20256;-67
2021/08/28 12:51:35;;;;;;;;;;;;;;;20.69;55.92;101430.91;5100175;28;19929;-70
2021/08/28 12:54:03;;;;;;;;;;;;;;;20.67;55.98;101430.09;5099091;28;19932;-70
2021/08/28 12:56:31;;;;;;;;;;;;;;;20.67;56.25;101429.22;5105490;28;20146;-66
2021/08/28 12:59:01;;;;;;;;;;;;;;;20.68;56.31;101429.16;5101743;28;19927;-68
2021/08/28 13:01:40;;;;;;;;;;;;;;;20.68;56.54;101428.28;5096922;28;19942;-69
2021/08/28 13:04:09;;;;;;;;;;;;;;;20.70;56.30;101421.03;5089248;28;19936;-72